createdAt,value
2022-12-15T00:00:11.600Z,-6.66
2022-12-15T00:02:57.305Z,-6.77
2022-12-15T00:05:45.047Z,-6.54
2022-12-15T00:08:36.477Z,-6.56
2022-12-15T00:11:23.115Z,-6.77
2022-12-15T00:14:09.348Z,-6.57
2022-12-15T00:16:55.041Z,-6.85
2022-12-15T00:19:40.579Z,-6.65
2022-12-15T00:22:27.556Z,-6.59
2022-12-15T00:25:13.248Z,-6.93
2022-12-15T00:27:58.804Z,-6.82
2022-12-15T00:30:44.676Z,-6.61
2022-12-15T00:33:35.575Z,-6.54
2022-12-15T00:36:21.815Z,-6.58
2022-12-15T00:38:52.334Z,-6.64
2022-12-15T00:41:21.056Z,-6.93
2022-12-15T00:43:50.036Z,-6.52
2022-12-15T00:46:35.774Z,-6.48
2022-12-15T00:49:04.613Z,-6.71
2022-12-15T00:51:50.233Z,-6.57
2022-12-15T00:54:37.722Z,-6.59
2022-12-15T00:57:23.186Z,-6.91
2022-12-15T01:00:08.595Z,-6.54
2022-12-15T01:02:54.318Z,-6.48
2022-12-15T01:05:41.903Z,-6.44
2022-12-15T01:08:27.400Z,-6.36
2022-12-15T01:11:14.155Z,-6.37
2022-12-15T01:13:59.648Z,-6.36
2022-12-15T01:16:45.203Z,-6.33
2022-12-15T01:19:31.224Z,-6.37
2022-12-15T01:21:59.617Z,-6.26
2022-12-15T01:24:28.037Z,-6.43
2022-12-15T01:26:57.998Z,-6.45
2022-12-15T01:29:27.116Z,-6.38
2022-12-15T01:31:55.547Z,-6.30
2022-12-15T01:34:24.166Z,-6.37
2022-12-15T01:36:52.553Z,-6.37
2022-12-15T01:39:21.049Z,-6.35
2022-12-15T01:41:48.382Z,-6.61
2022-12-15T01:44:23.367Z,-6.54
2022-12-15T01:46:56.397Z,-6.34
2022-12-15T01:49:30.724Z,-6.70
2022-12-15T01:52:01.854Z,-6.31
2022-12-15T01:54:36.299Z,-6.46
2022-12-15T01:57:07.926Z,-6.90
2022-12-15T01:59:43.580Z,-7.20
2022-12-15T02:02:14.118Z,-6.21
2022-12-15T02:04:43.391Z,-6.25
2022-12-15T02:07:15.019Z,-6.51
2022-12-15T02:09:44.377Z,-6.48
2022-12-15T02:12:25.156Z,-6.29
2022-12-15T02:15:08.552Z,-6.32
2022-12-15T02:17:43.661Z,-6.33
2022-12-15T02:20:45.874Z,-6.36
2022-12-15T02:23:55.971Z,-6.41
2022-12-15T02:26:56.136Z,-6.45
2022-12-15T02:29:42.132Z,-6.57
2022-12-15T02:32:14.740Z,-6.89
2022-12-15T02:34:47.783Z,-6.62
2022-12-15T02:37:23.039Z,-7.13
2022-12-15T02:39:51.698Z,-6.59
2022-12-15T02:42:20.846Z,-6.57
2022-12-15T02:44:53.974Z,-6.95
2022-12-15T02:47:34.121Z,-7.36
2022-12-15T02:50:18.155Z,-6.70
2022-12-15T02:52:57.615Z,-6.87
2022-12-15T02:55:36.144Z,-6.56
2022-12-15T02:58:13.650Z,-6.76
2022-12-15T03:00:48.202Z,-6.75
2022-12-15T03:03:22.190Z,-6.52
2022-12-15T03:05:53.442Z,-6.60
2022-12-15T03:08:22.568Z,-6.63
2022-12-15T03:10:52.540Z,-6.79
2022-12-15T03:13:21.131Z,-6.59
2022-12-15T03:15:49.462Z,-6.73
2022-12-15T03:18:19.440Z,-6.54
2022-12-15T03:20:47.954Z,-7.06
2022-12-15T03:23:16.350Z,-6.81
2022-12-15T03:25:46.557Z,-6.99
2022-12-15T03:28:18.550Z,-6.88
2022-12-15T03:30:50.496Z,-6.67
2022-12-15T03:33:20.704Z,-6.67
2022-12-15T03:35:49.953Z,-6.97
2022-12-15T03:38:18.828Z,-6.60
2022-12-15T03:40:47.375Z,-6.88
2022-12-15T03:43:15.653Z,-6.65
2022-12-15T03:45:44.348Z,-6.91
2022-12-15T03:48:12.822Z,-6.96
2022-12-15T03:50:42.669Z,-6.75
2022-12-15T03:53:11.051Z,-6.89
2022-12-15T03:55:39.532Z,-6.78
2022-12-15T03:58:08.173Z,-6.79
2022-12-15T04:00:36.628Z,-6.83
2022-12-15T04:03:05.431Z,-6.80
2022-12-15T04:05:36.383Z,-6.89
2022-12-15T04:08:07.199Z,-6.82
2022-12-15T04:10:37.451Z,-7.01
2022-12-15T04:13:07.856Z,-6.87
2022-12-15T04:15:37.794Z,-6.90
2022-12-15T04:18:08.086Z,-7.18
2022-12-15T04:20:36.682Z,-7.52
2022-12-15T04:23:08.048Z,-6.99
2022-12-15T04:25:54.592Z,-7.00
2022-12-15T04:28:40.851Z,-6.73
2022-12-15T04:31:28.338Z,-6.68
2022-12-15T04:34:16.957Z,-6.53
2022-12-15T04:37:05.394Z,-6.52
2022-12-15T04:39:53.625Z,-6.50
2022-12-15T04:42:39.520Z,-6.45
2022-12-15T04:45:26.843Z,-6.40
2022-12-15T04:48:12.550Z,-6.35
2022-12-15T04:50:57.798Z,-6.30
2022-12-15T04:53:43.872Z,-6.22
2022-12-15T04:56:31.964Z,-6.19
2022-12-15T04:59:17.988Z,-6.20
2022-12-15T05:02:04.449Z,-6.20
2022-12-15T05:04:50.473Z,-6.21
2022-12-15T05:07:36.224Z,-6.26
2022-12-15T05:10:22.978Z,-6.25
2022-12-15T05:13:10.123Z,-6.22
2022-12-15T05:15:55.877Z,-6.73
2022-12-15T05:18:41.899Z,-6.28
2022-12-15T05:21:27.288Z,-6.27
2022-12-15T05:24:13.111Z,-6.26
2022-12-15T05:26:58.612Z,-6.16
2022-12-15T05:29:45.642Z,-6.05
2022-12-15T05:32:14.258Z,-6.09
2022-12-15T05:34:42.763Z,-6.42
2022-12-15T05:37:11.127Z,-6.21
2022-12-15T05:39:39.442Z,-6.51
2022-12-15T05:42:08.131Z,-6.13
2022-12-15T05:44:37.966Z,-6.21
2022-12-15T05:47:06.549Z,-6.09
2022-12-15T05:49:35.817Z,-6.02
2022-12-15T05:52:04.485Z,-6.13
2022-12-15T05:54:32.882Z,-6.19
2022-12-15T05:57:01.246Z,-6.46
2022-12-15T05:59:29.780Z,-6.19
2022-12-15T06:01:59.818Z,-6.18
2022-12-15T06:04:28.243Z,-6.27
2022-12-15T06:06:58.587Z,-6.26
2022-12-15T06:09:26.947Z,-6.27
2022-12-15T06:11:55.277Z,-6.27
2022-12-15T06:14:23.646Z,-6.35
2022-12-15T06:16:52.110Z,-6.22
2022-12-15T06:19:22.283Z,-6.18
2022-12-15T06:21:50.694Z,-6.23
2022-12-15T06:24:19.225Z,-6.16
2022-12-15T06:26:49.829Z,-6.19
2022-12-15T06:29:18.526Z,-6.26
2022-12-15T06:31:47.146Z,-6.59
2022-12-15T06:34:17.896Z,-6.82
2022-12-15T06:36:47.761Z,-7.04
2022-12-15T06:39:17.740Z,-6.73
2022-12-15T06:41:46.292Z,-6.56
2022-12-15T06:44:16.282Z,-6.51
2022-12-15T06:46:46.321Z,-6.48
2022-12-15T06:49:15.900Z,-6.45
2022-12-15T06:51:45.219Z,-6.51
2022-12-15T06:54:15.647Z,-6.36
2022-12-15T06:56:44.068Z,-6.40
2022-12-15T06:59:13.507Z,-6.34
2022-12-15T07:01:43.152Z,-6.34
2022-12-15T07:04:12.429Z,-6.38
2022-12-15T07:06:42.516Z,-6.66
2022-12-15T07:09:17.740Z,-6.59
2022-12-15T07:11:49.394Z,-6.52
2022-12-15T07:14:17.856Z,-6.65
2022-12-15T07:16:46.490Z,-6.87
2022-12-15T07:19:15.208Z,-6.58
2022-12-15T07:21:44.560Z,-6.66
2022-12-15T07:24:13.978Z,-6.66
2022-12-15T07:26:44.950Z,-6.80
2022-12-15T07:29:16.891Z,-6.82
2022-12-15T07:31:48.097Z,-6.74
2022-12-15T07:34:16.765Z,-6.73
2022-12-15T07:36:51.597Z,-7.10
2022-12-15T07:39:20.584Z,-6.76
2022-12-15T07:41:50.685Z,-6.94
2022-12-15T07:44:19.427Z,-6.66
2022-12-15T07:46:49.475Z,-6.62
2022-12-15T07:49:18.396Z,-6.56
2022-12-15T07:51:46.959Z,-6.73
2022-12-15T07:54:15.913Z,-6.85
2022-12-15T07:56:44.467Z,-6.46
2022-12-15T07:59:21.199Z,-6.37
2022-12-15T08:01:50.875Z,-6.41
2022-12-15T08:04:19.987Z,-6.44
2022-12-15T08:06:48.349Z,-6.38
2022-12-15T08:09:16.912Z,-6.33
2022-12-15T08:11:45.245Z,-6.56
2022-12-15T08:14:17.638Z,-6.18
2022-12-15T08:16:48.372Z,-6.10
2022-12-15T08:19:18.144Z,-6.03
2022-12-15T08:21:47.647Z,-5.97
2022-12-15T08:24:17.460Z,-5.93
2022-12-15T08:26:50.191Z,-5.73
2022-12-15T08:32:09.275Z,-5.52
2022-12-15T08:34:37.936Z,-5.41
2022-12-15T08:37:06.412Z,-5.38
2022-12-15T08:39:34.745Z,-5.71
2022-12-15T08:42:03.308Z,-5.15
2022-12-15T08:44:31.694Z,-5.07
2022-12-15T08:46:59.977Z,-5.04
2022-12-15T08:49:29.801Z,-4.82
2022-12-15T08:51:58.316Z,-5.08
2022-12-15T08:54:26.620Z,-4.73
2022-12-15T08:56:55.402Z,-4.65
2022-12-15T08:59:24.007Z,-4.53
2022-12-15T09:01:52.622Z,-4.42
2022-12-15T09:04:21.178Z,-4.33
2022-12-15T09:06:51.592Z,-4.46
2022-12-15T09:09:20.546Z,-4.24
2022-12-15T09:11:49.249Z,-4.18
2022-12-15T09:14:19.708Z,-4.15
2022-12-15T09:16:51.400Z,-4.10
2022-12-15T09:19:20.518Z,-4.06
2022-12-15T09:21:50.382Z,-3.99
2022-12-15T09:24:28.904Z,-3.93
2022-12-15T09:27:03.458Z,-3.93
2022-12-15T09:29:32.333Z,-4.03
2022-12-15T09:32:01.198Z,-4.08
2022-12-15T09:34:29.629Z,-3.52
2022-12-15T09:36:59.429Z,-3.45
2022-12-15T09:39:27.960Z,-3.43
2022-12-15T09:41:59.940Z,-3.61
2022-12-15T09:44:31.628Z,-3.25
2022-12-15T09:47:08.418Z,-3.13
2022-12-15T09:49:51.714Z,-3.12
2022-12-15T09:52:25.195Z,-3.04
2022-12-15T09:54:54.167Z,-2.99
2022-12-15T09:57:33.205Z,-2.96
2022-12-15T10:00:16.043Z,-2.96
2022-12-15T10:03:09.639Z,-3.05
2022-12-15T10:06:14.513Z,-2.83
2022-12-15T10:08:41.345Z,-2.74
2022-12-15T10:11:21.438Z,-2.67
2022-12-15T10:13:55.916Z,-2.59
2022-12-15T10:16:30.340Z,-2.61
2022-12-15T10:19:07.353Z,-2.38
2022-12-15T10:21:36.609Z,-2.72
2022-12-15T10:24:31.538Z,-2.25
2022-12-15T10:27:21.497Z,-2.29
2022-12-15T10:29:55.434Z,-2.33
2022-12-15T10:32:31.753Z,-2.41
2022-12-15T10:35:00.250Z,-2.40
2022-12-15T10:37:28.669Z,-2.40
2022-12-15T10:39:58.696Z,-2.13
2022-12-15T10:42:28.757Z,-2.28
2022-12-15T10:44:58.790Z,-1.85
2022-12-15T10:47:29.098Z,-1.73
2022-12-15T10:50:24.058Z,-1.70
2022-12-15T10:52:53.287Z,-1.70
2022-12-15T10:55:38.609Z,-1.84
2022-12-15T10:58:16.962Z,-1.67
2022-12-15T11:00:46.632Z,-1.58
2022-12-15T11:03:25.744Z,-1.56
2022-12-15T11:05:55.472Z,-1.65
2022-12-15T11:08:25.777Z,-2.10
2022-12-15T11:11:15.713Z,-1.66
2022-12-15T11:13:44.691Z,-1.72
2022-12-15T11:16:17.854Z,-1.75
2022-12-15T11:18:51.391Z,-1.79
2022-12-15T11:21:23.899Z,-1.83
2022-12-15T11:23:59.358Z,-1.82
2022-12-15T11:26:42.014Z,-2.08
2022-12-15T11:29:22.532Z,-1.83
2022-12-15T11:31:52.596Z,-2.00
2022-12-15T11:34:24.252Z,-1.68
2022-12-15T11:37:03.951Z,-1.58
2022-12-15T11:39:46.187Z,-1.55
2022-12-15T11:42:30.358Z,-1.52
2022-12-15T11:45:09.205Z,-1.38
2022-12-15T11:47:45.157Z,-1.41
2022-12-15T11:50:32.162Z,-1.43
2022-12-15T11:53:38.885Z,-1.47
2022-12-15T11:56:16.280Z,-1.95
2022-12-15T11:59:04.925Z,-1.96
2022-12-15T12:01:58.871Z,-1.57
2022-12-15T12:04:39.270Z,-1.60
2022-12-15T12:07:15.654Z,-1.59
2022-12-15T12:09:52.788Z,-1.68
2022-12-15T12:12:27.317Z,-1.60
2022-12-15T12:15:15.830Z,-1.62
2022-12-15T12:17:47.630Z,-1.69
2022-12-15T12:20:19.896Z,-1.89
2022-12-15T12:22:58.947Z,-1.73
2022-12-15T12:25:28.111Z,-1.93
2022-12-15T12:28:00.051Z,-1.84
2022-12-15T12:30:34.741Z,-1.89
2022-12-15T12:33:10.961Z,-1.93
2022-12-15T12:35:45.947Z,-2.12
2022-12-15T12:38:15.161Z,-2.01
2022-12-15T12:40:55.180Z,-2.03
2022-12-15T12:43:33.593Z,-2.05
2022-12-15T12:46:10.783Z,-2.49
2022-12-15T12:48:45.121Z,-2.03
2022-12-15T12:51:26.962Z,-2.26
2022-12-15T12:53:56.434Z,-2.24
2022-12-15T12:56:35.116Z,-2.14
2022-12-15T12:59:08.966Z,-2.15
2022-12-15T13:01:39.410Z,-2.05
2022-12-15T13:04:13.570Z,-2.03
2022-12-15T13:07:05.812Z,-2.21
2022-12-15T13:09:42.532Z,-2.09
2022-12-15T13:12:52.610Z,-2.12
2022-12-15T13:15:37.445Z,-2.19
2022-12-15T13:18:16.460Z,-2.21
2022-12-15T13:20:50.571Z,-2.28
2022-12-15T13:23:41.951Z,-2.35
2022-12-15T13:26:15.010Z,-2.65
2022-12-15T13:28:51.679Z,-2.44
2022-12-15T13:31:31.793Z,-2.83
2022-12-15T13:34:13.104Z,-2.77
2022-12-15T13:36:55.963Z,-2.76
2022-12-15T13:39:51.951Z,-2.88
2022-12-15T13:42:40.252Z,-2.92
2022-12-15T13:45:51.476Z,-3.03
2022-12-15T13:48:28.013Z,-3.03
2022-12-15T13:51:04.549Z,-3.10
2022-12-15T13:53:44.818Z,-3.10
2022-12-15T13:56:42.849Z,-3.13
2022-12-15T13:59:20.945Z,-3.18
2022-12-15T14:01:55.732Z,-3.20
2022-12-15T14:04:24.640Z,-3.31
2022-12-15T14:06:57.046Z,-3.41
2022-12-15T14:09:29.994Z,-3.27
2022-12-15T14:11:59.322Z,-3.29
2022-12-15T14:14:31.355Z,-3.34
2022-12-15T14:17:02.640Z,-3.50
2022-12-15T14:19:41.942Z,-3.34
2022-12-15T14:25:21.196Z,-3.56
2022-12-15T14:27:50.854Z,-3.62
2022-12-15T14:30:26.441Z,-3.75
2022-12-15T14:32:59.607Z,-3.99
2022-12-15T14:35:32.979Z,-3.74
2022-12-15T14:38:06.896Z,-3.82
2022-12-15T14:40:37.331Z,-3.90
2022-12-15T14:43:08.675Z,-3.94
2022-12-15T14:45:37.487Z,-3.94
2022-12-15T14:51:01.721Z,-3.91
2022-12-15T14:53:35.105Z,-4.29
2022-12-15T14:56:29.659Z,-4.06
2022-12-15T14:59:04.009Z,-4.03
2022-12-15T15:01:35.365Z,-4.18
2022-12-15T15:04:05.413Z,-4.17
2022-12-15T15:06:37.509Z,-4.24
2022-12-15T15:09:23.778Z,-4.30
2022-12-15T15:11:54.578Z,-4.23
2022-12-15T15:14:27.272Z,-4.29
2022-12-15T15:17:09.772Z,-4.20
2022-12-15T15:19:40.588Z,-4.26
2022-12-15T15:22:37.914Z,-4.40
2022-12-15T15:28:14.119Z,-4.43
2022-12-15T15:30:45.222Z,-4.45
2022-12-15T15:33:14.764Z,-4.77
2022-12-15T15:35:45.260Z,-4.77
2022-12-15T15:38:21.724Z,-4.54
2022-12-15T15:40:54.940Z,-4.70
2022-12-15T15:43:25.739Z,-4.66
2022-12-15T15:46:00.300Z,-4.73
2022-12-15T15:48:32.137Z,-4.65
2022-12-15T15:51:02.125Z,-4.67
2022-12-15T15:53:33.210Z,-4.70
2022-12-15T15:56:03.533Z,-4.74
2022-12-15T15:58:33.739Z,-4.75
2022-12-15T16:01:03.826Z,-5.55
2022-12-15T16:03:36.180Z,-4.95
2022-12-15T16:06:05.924Z,-5.07
2022-12-15T16:08:38.347Z,-5.05
2022-12-15T16:11:07.558Z,-5.09
2022-12-15T16:13:37.405Z,-5.03
2022-12-15T16:16:06.312Z,-4.98
2022-12-15T16:18:35.340Z,-5.19
2022-12-15T16:21:03.913Z,-5.00
2022-12-15T16:23:32.451Z,-5.03
2022-12-15T16:26:01.603Z,-5.12
2022-12-15T16:28:32.144Z,-5.09
2022-12-15T16:31:02.696Z,-5.11
2022-12-15T16:33:31.137Z,-5.31
2022-12-15T16:35:59.816Z,-5.38
2022-12-15T16:38:31.322Z,-5.22
2022-12-15T16:41:05.803Z,-5.37
2022-12-15T16:43:38.136Z,-5.35
2022-12-15T16:46:14.263Z,-5.38
2022-12-15T16:48:42.926Z,-5.40
2022-12-15T16:51:21.429Z,-5.58
2022-12-15T16:53:50.304Z,-5.42
2022-12-15T16:56:18.626Z,-5.43
2022-12-15T16:58:49.056Z,-5.42
2022-12-15T17:01:23.228Z,-5.41
2022-12-15T17:03:51.791Z,-5.40
2022-12-15T17:06:20.398Z,-5.41
2022-12-15T17:08:51.692Z,-5.61
2022-12-15T17:11:24.889Z,-5.47
2022-12-15T17:13:55.576Z,-5.51
2022-12-15T17:16:29.999Z,-5.54
2022-12-15T17:18:58.915Z,-5.76
2022-12-15T17:21:30.363Z,-5.63
2022-12-15T17:24:02.100Z,-5.70
2022-12-15T17:26:34.082Z,-6.33
2022-12-15T17:29:07.921Z,-5.83
2022-12-15T17:31:39.094Z,-5.93
2022-12-15T17:34:25.755Z,-5.90
2022-12-15T17:36:54.429Z,-5.84
2022-12-15T17:39:24.461Z,-5.87
2022-12-15T17:42:02.339Z,-6.17
2022-12-15T17:44:35.823Z,-5.92
2022-12-15T17:47:08.983Z,-6.17
2022-12-15T17:49:38.886Z,-5.98
2022-12-15T17:52:16.853Z,-5.90
2022-12-15T17:54:45.923Z,-6.16
2022-12-15T17:57:15.162Z,-6.11
2022-12-15T17:59:43.792Z,-5.96
2022-12-15T18:02:16.281Z,-6.00
2022-12-15T18:04:45.552Z,-6.01
2022-12-15T18:07:18.699Z,-6.02
2022-12-15T18:09:47.795Z,-6.32
2022-12-15T18:12:25.692Z,-6.10
2022-12-15T18:14:54.920Z,-6.15
2022-12-15T18:17:25.476Z,-6.23
2022-12-15T18:19:54.102Z,-6.21
2022-12-15T18:22:25.615Z,-6.30
2022-12-15T18:24:55.747Z,-6.34
2022-12-15T18:27:25.489Z,-6.29
2022-12-15T18:29:53.970Z,-6.64
2022-12-15T18:32:26.193Z,-6.51
2022-12-15T18:34:55.205Z,-6.38
2022-12-15T18:37:25.963Z,-6.44
2022-12-15T18:39:57.139Z,-6.67
2022-12-15T18:42:29.820Z,-6.72
2022-12-15T18:45:00.630Z,-6.48
2022-12-15T18:47:30.764Z,-6.51
2022-12-15T18:50:01.139Z,-6.56
2022-12-15T18:52:34.433Z,-6.57
2022-12-15T18:55:03.768Z,-6.75
2022-12-15T18:57:36.146Z,-6.95
2022-12-15T19:00:18.648Z,-6.58
2022-12-15T19:02:50.256Z,-6.57
2022-12-15T19:05:33.029Z,-6.58
2022-12-15T19:08:05.301Z,-6.63
2022-12-15T19:10:36.163Z,-6.65
2022-12-15T19:13:04.668Z,-6.66
2022-12-15T19:15:33.258Z,-6.67
2022-12-15T19:18:20.761Z,-6.69
2022-12-15T19:21:06.289Z,-6.80
2022-12-15T19:23:35.273Z,-6.66
2022-12-15T19:26:04.168Z,-6.60
2022-12-15T19:28:34.218Z,-6.76
2022-12-15T19:31:02.601Z,-6.60
2022-12-15T19:33:34.151Z,-6.60
2022-12-15T19:36:04.373Z,-6.57
2022-12-15T19:38:34.333Z,-6.75
2022-12-15T19:41:03.357Z,-6.55
2022-12-15T19:43:32.574Z,-6.55
2022-12-15T19:46:01.926Z,-6.61
2022-12-15T19:48:32.039Z,-6.76
2022-12-15T19:51:01.284Z,-6.66
2022-12-15T19:53:31.552Z,-6.70
2022-12-15T19:56:02.639Z,-6.80
2022-12-15T19:58:33.060Z,-6.75
2022-12-15T20:01:06.868Z,-6.74
2022-12-15T20:03:37.975Z,-6.85
2022-12-15T20:06:15.403Z,-6.76
2022-12-15T20:08:45.905Z,-6.73
2022-12-15T20:11:19.807Z,-6.72
2022-12-15T20:13:50.558Z,-6.73
2022-12-15T20:16:20.568Z,-6.71
2022-12-15T20:18:53.386Z,-6.70
2022-12-15T20:21:23.526Z,-6.85
2022-12-15T20:23:55.946Z,-6.71
2022-12-15T20:26:26.495Z,-6.73
2022-12-15T20:28:55.150Z,-6.70
2022-12-15T20:31:26.266Z,-6.69
2022-12-15T20:33:56.379Z,-6.93
2022-12-15T20:36:27.897Z,-6.71
2022-12-15T20:38:56.795Z,-6.83
2022-12-15T20:41:26.885Z,-6.70
2022-12-15T20:43:56.698Z,-6.73
2022-12-15T20:46:26.665Z,-6.96
2022-12-15T20:48:57.139Z,-6.73
2022-12-15T20:51:27.167Z,-6.71
2022-12-15T20:53:59.391Z,-6.66
2022-12-15T20:56:29.000Z,-6.60
2022-12-15T20:58:59.319Z,-6.57
2022-12-15T21:01:31.900Z,-6.49
2022-12-15T21:04:03.797Z,-6.45
2022-12-15T21:06:33.064Z,-6.38
2022-12-15T21:09:01.505Z,-6.38
2022-12-15T21:11:33.999Z,-6.36
2022-12-15T21:14:04.645Z,-6.50
2022-12-15T21:16:33.954Z,-6.40
2022-12-15T21:19:19.846Z,-6.39
2022-12-15T21:21:55.511Z,-6.29
2022-12-15T21:24:26.557Z,-6.61
2022-12-15T21:26:55.314Z,-6.33
2022-12-15T21:29:25.470Z,-6.40
2022-12-15T21:31:53.825Z,-6.71
2022-12-15T21:34:23.654Z,-6.48
2022-12-15T21:36:55.525Z,-6.29
2022-12-15T21:39:29.624Z,-6.27
2022-12-15T21:42:00.636Z,-6.27
2022-12-15T21:44:29.165Z,-6.50
2022-12-15T21:46:57.443Z,-6.24
2022-12-15T21:49:26.537Z,-6.16
2022-12-15T21:51:58.082Z,-6.21
2022-12-15T21:54:31.190Z,-6.13
2022-12-15T21:56:59.985Z,-6.24
2022-12-15T21:59:30.847Z,-6.50
2022-12-15T22:02:00.991Z,-6.27
2022-12-15T22:04:32.780Z,-6.20
2022-12-15T22:07:01.744Z,-6.28
2022-12-15T22:09:30.496Z,-6.24
2022-12-15T22:11:59.141Z,-6.18
2022-12-15T22:14:29.611Z,-6.27
2022-12-15T22:16:58.477Z,-6.11
2022-12-15T22:19:27.146Z,-6.10
2022-12-15T22:21:57.103Z,-6.09
2022-12-15T22:24:25.525Z,-6.67
2022-12-15T22:26:53.955Z,-6.18
2022-12-15T22:29:25.065Z,-6.22
2022-12-15T22:31:54.908Z,-6.06
2022-12-15T22:34:25.048Z,-6.26
2022-12-15T22:36:53.497Z,-6.33
2022-12-15T22:39:25.562Z,-6.10
2022-12-15T22:41:54.100Z,-6.08
2022-12-15T22:44:25.124Z,-6.20
2022-12-15T22:46:55.741Z,-6.06
2022-12-15T22:49:26.871Z,-6.31
2022-12-15T22:51:55.570Z,-6.04
2022-12-15T22:54:27.104Z,-6.51
2022-12-15T22:56:59.909Z,-6.00
2022-12-15T22:59:31.974Z,-6.12
2022-12-15T23:02:02.629Z,-5.99
2022-12-15T23:04:31.579Z,-6.17
2022-12-15T23:07:01.409Z,-5.94
2022-12-15T23:09:31.413Z,-5.95
2022-12-15T23:11:59.382Z,-5.93
2022-12-15T23:14:41.472Z,-5.90
2022-12-15T23:17:09.933Z,-5.88
2022-12-15T23:19:38.400Z,-6.28
2022-12-15T23:22:06.742Z,-5.90
2022-12-15T23:24:36.595Z,-6.07
2022-12-15T23:27:06.000Z,-5.98
2022-12-15T23:29:34.707Z,-6.03
2022-12-15T23:32:03.471Z,-6.06
2022-12-15T23:34:31.909Z,-6.09
2022-12-15T23:37:00.979Z,-6.12
2022-12-15T23:39:29.575Z,-6.08
2022-12-15T23:41:59.460Z,-6.08
2022-12-15T23:44:28.255Z,-6.12
2022-12-15T23:46:57.501Z,-6.16
2022-12-15T23:49:26.026Z,-6.18
2022-12-15T23:51:54.437Z,-6.11
2022-12-15T23:54:23.502Z,-6.23
2022-12-15T23:56:51.895Z,-6.17
2022-12-15T23:59:21.942Z,-6.18
